sensor_id;sensor_type;location;lat;lon;timestamp;P1;durP1;ratioP1;P2;durP2;ratioP2
37847;SDS011;23688;33.130;-117.188;2023-08-30T00:01:24;10.95;;;4.75;;
37847;SDS011;23688;33.130;-117.188;2023-08-30T00:03:51;10.65;;;4.95;;
37847;SDS011;23688;33.130;-117.188;2023-08-30T00:06:17;10.93;;;5.78;;
37847;SDS011;23688;33.130;-117.188;2023-08-30T00:08:44;8.45;;;4.93;;
37847;SDS011;23688;33.130;-117.188;2023-08-30T00:11:10;12.25;;;5.63;;
37847;SDS011;23688;33.130;-117.188;2023-08-30T00:13:36;12.02;;;6.35;;
37847;SDS011;23688;33.130;-117.188;2023-08-30T00:16:03;9.45;;;4.70;;
37847;SDS011;23688;33.130;-117.188;2023-08-30T00:18:29;10.20;;;5.07;;
37847;SDS011;23688;33.130;-117.188;2023-08-30T00:20:56;9.85;;;5.47;;
37847;SDS011;23688;33.130;-117.188;2023-08-30T00:23:22;10.25;;;5.18;;
37847;SDS011;23688;33.130;-117.188;2023-08-30T00:25:48;10.98;;;5.25;;
37847;SDS011;23688;33.130;-117.188;2023-08-30T00:28:15;13.20;;;5.10;;
37847;SDS011;23688;33.130;-117.188;2023-08-30T00:30:41;10.25;;;5.00;;
37847;SDS011;23688;33.130;-117.188;2023-08-30T00:33:07;12.27;;;4.85;;
37847;SDS011;23688;33.130;-117.188;2023-08-30T00:35:33;12.70;;;5.32;;
37847;SDS011;23688;33.130;-117.188;2023-08-30T00:38:02;11.00;;;5.30;;
37847;SDS011;23688;33.130;-117.188;2023-08-30T00:40:28;15.43;;;5.47;;
37847;SDS011;23688;33.130;-117.188;2023-08-30T00:43:03;13.73;;;5.45;;
37847;SDS011;23688;33.130;-117.188;2023-08-30T00:45:29;11.43;;;4.25;;
37847;SDS011;23688;33.130;-117.188;2023-08-30T00:47:55;11.27;;;5.22;;
37847;SDS011;23688;33.130;-117.188;2023-08-30T00:50:21;9.30;;;5.43;;
37847;SDS011;23688;33.130;-117.188;2023-08-30T00:52:48;7.20;;;4.50;;
37847;SDS011;23688;33.130;-117.188;2023-08-30T00:55:14;15.27;;;5.90;;
37847;SDS011;23688;33.130;-117.188;2023-08-30T00:57:41;8.40;;;4.75;;
37847;SDS011;23688;33.130;-117.188;2023-08-30T01:00:07;11.63;;;5.82;;
37847;SDS011;23688;33.130;-117.188;2023-08-30T01:02:36;11.43;;;5.53;;
37847;SDS011;23688;33.130;-117.188;2023-08-30T01:05:02;11.75;;;5.78;;
37847;SDS011;23688;33.130;-117.188;2023-08-30T01:07:29;10.45;;;4.93;;
37847;SDS011;23688;33.130;-117.188;2023-08-30T01:09:55;12.93;;;5.68;;
37847;SDS011;23688;33.130;-117.188;2023-08-30T01:12:24;12.55;;;6.47;;
37847;SDS011;23688;33.130;-117.188;2023-08-30T01:15:13;9.65;;;5.13;;
37847;SDS011;23688;33.130;-117.188;2023-08-30T01:17:44;12.85;;;5.80;;
37847;SDS011;23688;33.130;-117.188;2023-08-30T01:20:13;12.48;;;5.40;;
37847;SDS011;23688;33.130;-117.188;2023-08-30T01:22:50;10.18;;;4.90;;
37847;SDS011;23688;33.130;-117.188;2023-08-30T01:25:43;11.45;;;5.40;;
37847;SDS011;23688;33.130;-117.188;2023-08-30T01:28:12;13.10;;;6.55;;
37847;SDS011;23688;33.130;-117.188;2023-08-30T01:30:42;13.63;;;6.15;;
37847;SDS011;23688;33.130;-117.188;2023-08-30T01:35:36;16.25;;;6.40;;
37847;SDS011;23688;33.130;-117.188;2023-08-30T01:38:06;13.40;;;5.95;;
37847;SDS011;23688;33.130;-117.188;2023-08-30T01:40:37;15.25;;;5.25;;
37847;SDS011;23688;33.130;-117.188;2023-08-30T01:43:06;14.55;;;6.53;;
37847;SDS011;23688;33.130;-117.188;2023-08-30T01:45:36;15.40;;;6.97;;
37847;SDS011;23688;33.130;-117.188;2023-08-30T01:48:14;16.45;;;6.28;;
37847;SDS011;23688;33.130;-117.188;2023-08-30T01:50:44;11.57;;;5.70;;
37847;SDS011;23688;33.130;-117.188;2023-08-30T01:53:12;14.03;;;5.63;;
37847;SDS011;23688;33.130;-117.188;2023-08-30T01:55:39;15.27;;;5.87;;
37847;SDS011;23688;33.130;-117.188;2023-08-30T01:58:06;12.77;;;6.27;;
37847;SDS011;23688;33.130;-117.188;2023-08-30T02:00:34;14.18;;;6.55;;
37847;SDS011;23688;33.130;-117.188;2023-08-30T02:03:11;18.30;;;7.00;;
37847;SDS011;23688;33.130;-117.188;2023-08-30T02:05:50;17.33;;;6.83;;
37847;SDS011;23688;33.130;-117.188;2023-08-30T02:08:30;17.60;;;7.28;;
37847;SDS011;23688;33.130;-117.188;2023-08-30T02:11:04;14.05;;;6.53;;
37847;SDS011;23688;33.130;-117.188;2023-08-30T02:13:37;13.80;;;6.10;;
37847;SDS011;23688;33.130;-117.188;2023-08-30T02:16:05;14.88;;;6.30;;
37847;SDS011;23688;33.130;-117.188;2023-08-30T02:18:34;10.85;;;6.43;;
37847;SDS011;23688;33.130;-117.188;2023-08-30T02:21:02;15.73;;;6.88;;
37847;SDS011;23688;33.130;-117.188;2023-08-30T02:23:28;14.85;;;5.93;;
37847;SDS011;23688;33.130;-117.188;2023-08-30T02:25:55;15.70;;;6.45;;
37847;SDS011;23688;33.130;-117.188;2023-08-30T02:28:21;12.98;;;6.65;;
37847;SDS011;23688;33.130;-117.188;2023-08-30T02:30:48;14.77;;;6.80;;
37847;SDS011;23688;33.130;-117.188;2023-08-30T02:33:16;14.43;;;6.10;;
37847;SDS011;23688;33.130;-117.188;2023-08-30T02:35:42;15.57;;;7.63;;
37847;SDS011;23688;33.130;-117.188;2023-08-30T02:38:08;20.48;;;6.60;;
37847;SDS011;23688;33.130;-117.188;2023-08-30T02:40:34;17.10;;;7.82;;
37847;SDS011;23688;33.130;-117.188;2023-08-30T02:43:01;11.63;;;6.38;;
37847;SDS011;23688;33.130;-117.188;2023-08-30T02:45:27;17.15;;;6.72;;
37847;SDS011;23688;33.130;-117.188;2023-08-30T02:47:56;15.65;;;6.63;;
37847;SDS011;23688;33.130;-117.188;2023-08-30T02:50:23;12.95;;;7.18;;
37847;SDS011;23688;33.130;-117.188;2023-08-30T02:52:50;16.33;;;6.53;;
37847;SDS011;23688;33.130;-117.188;2023-08-30T02:55:17;16.30;;;6.43;;
37847;SDS011;23688;33.130;-117.188;2023-08-30T02:57:43;17.13;;;6.85;;
37847;SDS011;23688;33.130;-117.188;2023-08-30T03:00:11;21.07;;;7.60;;
37847;SDS011;23688;33.130;-117.188;2023-08-30T03:02:39;17.08;;;7.43;;
37847;SDS011;23688;33.130;-117.188;2023-08-30T03:05:05;19.50;;;8.10;;
37847;SDS011;23688;33.130;-117.188;2023-08-30T03:07:32;24.33;;;7.97;;
37847;SDS011;23688;33.130;-117.188;2023-08-30T03:09:58;19.92;;;7.75;;
37847;SDS011;23688;33.130;-117.188;2023-08-30T03:12:24;23.08;;;7.90;;
37847;SDS011;23688;33.130;-117.188;2023-08-30T03:14:51;18.83;;;8.15;;
37847;SDS011;23688;33.130;-117.188;2023-08-30T03:17:17;20.83;;;8.27;;
37847;SDS011;23688;33.130;-117.188;2023-08-30T03:19:43;17.40;;;9.18;;
37847;SDS011;23688;33.130;-117.188;2023-08-30T03:22:09;21.85;;;8.32;;
37847;SDS011;23688;33.130;-117.188;2023-08-30T03:24:39;20.88;;;8.63;;
37847;SDS011;23688;33.130;-117.188;2023-08-30T03:27:05;19.55;;;8.52;;
37847;SDS011;23688;33.130;-117.188;2023-08-30T03:29:33;22.55;;;8.98;;
37847;SDS011;23688;33.130;-117.188;2023-08-30T03:31:59;21.65;;;8.38;;
37847;SDS011;23688;33.130;-117.188;2023-08-30T03:34:26;25.92;;;7.72;;
37847;SDS011;23688;33.130;-117.188;2023-08-30T03:36:52;25.55;;;8.52;;
37847;SDS011;23688;33.130;-117.188;2023-08-30T03:39:20;22.13;;;8.05;;
37847;SDS011;23688;33.130;-117.188;2023-08-30T03:41:46;23.40;;;8.95;;
37847;SDS011;23688;33.130;-117.188;2023-08-30T03:44:14;17.85;;;7.97;;
37847;SDS011;23688;33.130;-117.188;2023-08-30T03:46:40;21.27;;;8.05;;
37847;SDS011;23688;33.130;-117.188;2023-08-30T03:49:06;15.93;;;8.02;;
37847;SDS011;23688;33.130;-117.188;2023-08-30T03:51:33;19.80;;;8.23;;
37847;SDS011;23688;33.130;-117.188;2023-08-30T03:53:59;19.50;;;8.20;;
37847;SDS011;23688;33.130;-117.188;2023-08-30T03:56:26;23.25;;;8.27;;
37847;SDS011;23688;33.130;-117.188;2023-08-30T03:58:52;20.08;;;8.90;;
37847;SDS011;23688;33.130;-117.188;2023-08-30T04:01:18;22.05;;;9.25;;
37847;SDS011;23688;33.130;-117.188;2023-08-30T04:03:45;19.80;;;8.77;;
37847;SDS011;23688;33.130;-117.188;2023-08-30T04:06:11;24.73;;;9.07;;
37847;SDS011;23688;33.130;-117.188;2023-08-30T04:08:37;22.90;;;8.77;;
37847;SDS011;23688;33.130;-117.188;2023-08-30T04:11:04;22.83;;;9.13;;
37847;SDS011;23688;33.130;-117.188;2023-08-30T04:13:30;23.77;;;9.65;;
37847;SDS011;23688;33.130;-117.188;2023-08-30T04:15:57;17.27;;;7.82;;
37847;SDS011;23688;33.130;-117.188;2023-08-30T04:18:24;17.33;;;7.00;;
37847;SDS011;23688;33.130;-117.188;2023-08-30T04:20:50;15.95;;;7.13;;
37847;SDS011;23688;33.130;-117.188;2023-08-30T04:23:16;16.88;;;6.63;;
37847;SDS011;23688;33.130;-117.188;2023-08-30T04:25:43;16.85;;;7.63;;
37847;SDS011;23688;33.130;-117.188;2023-08-30T04:28:10;17.80;;;7.30;;
37847;SDS011;23688;33.130;-117.188;2023-08-30T04:30:36;18.85;;;7.90;;
37847;SDS011;23688;33.130;-117.188;2023-08-30T04:33:04;14.88;;;6.93;;
37847;SDS011;23688;33.130;-117.188;2023-08-30T04:35:30;13.98;;;6.85;;
37847;SDS011;23688;33.130;-117.188;2023-08-30T04:38:00;14.88;;;7.40;;
37847;SDS011;23688;33.130;-117.188;2023-08-30T04:40:28;15.40;;;7.20;;
37847;SDS011;23688;33.130;-117.188;2023-08-30T04:42:55;19.52;;;7.85;;
37847;SDS011;23688;33.130;-117.188;2023-08-30T04:45:23;17.40;;;7.30;;
37847;SDS011;23688;33.130;-117.188;2023-08-30T04:47:49;15.55;;;7.05;;
37847;SDS011;23688;33.130;-117.188;2023-08-30T04:50:15;13.40;;;6.00;;
37847;SDS011;23688;33.130;-117.188;2023-08-30T04:52:42;14.43;;;6.50;;
37847;SDS011;23688;33.130;-117.188;2023-08-30T04:55:09;13.57;;;6.35;;
37847;SDS011;23688;33.130;-117.188;2023-08-30T04:57:35;16.85;;;6.70;;
37847;SDS011;23688;33.130;-117.188;2023-08-30T05:00:04;13.27;;;6.38;;
37847;SDS011;23688;33.130;-117.188;2023-08-30T05:02:31;17.00;;;6.63;;
37847;SDS011;23688;33.130;-117.188;2023-08-30T05:04:58;17.25;;;7.97;;
37847;SDS011;23688;33.130;-117.188;2023-08-30T05:07:24;16.95;;;7.85;;
37847;SDS011;23688;33.130;-117.188;2023-08-30T05:09:50;14.93;;;7.22;;
37847;SDS011;23688;33.130;-117.188;2023-08-30T05:12:17;14.95;;;6.28;;
37847;SDS011;23688;33.130;-117.188;2023-08-30T05:14:43;13.82;;;6.63;;
37847;SDS011;23688;33.130;-117.188;2023-08-30T05:17:09;16.10;;;6.07;;
37847;SDS011;23688;33.130;-117.188;2023-08-30T05:19:36;14.90;;;5.95;;
37847;SDS011;23688;33.130;-117.188;2023-08-30T05:22:02;14.45;;;5.43;;
37847;SDS011;23688;33.130;-117.188;2023-08-30T05:24:29;12.77;;;5.13;;
37847;SDS011;23688;33.130;-117.188;2023-08-30T05:26:55;13.48;;;5.60;;
37847;SDS011;23688;33.130;-117.188;2023-08-30T05:29:23;14.60;;;5.13;;
37847;SDS011;23688;33.130;-117.188;2023-08-30T05:31:49;15.90;;;5.22;;
37847;SDS011;23688;33.130;-117.188;2023-08-30T05:34:16;8.27;;;4.45;;
37847;SDS011;23688;33.130;-117.188;2023-08-30T05:36:42;11.57;;;4.97;;
37847;SDS011;23688;33.130;-117.188;2023-08-30T05:39:08;12.75;;;5.32;;
37847;SDS011;23688;33.130;-117.188;2023-08-30T05:41:35;11.27;;;5.28;;
37847;SDS011;23688;33.130;-117.188;2023-08-30T05:44:01;8.35;;;5.10;;
37847;SDS011;23688;33.130;-117.188;2023-08-30T05:46:28;13.68;;;5.10;;
37847;SDS011;23688;33.130;-117.188;2023-08-30T05:48:54;10.52;;;5.35;;
37847;SDS011;23688;33.130;-117.188;2023-08-30T05:51:20;8.73;;;4.90;;
37847;SDS011;23688;33.130;-117.188;2023-08-30T05:53:47;12.23;;;5.95;;
37847;SDS011;23688;33.130;-117.188;2023-08-30T05:56:13;10.00;;;5.32;;
37847;SDS011;23688;33.130;-117.188;2023-08-30T05:58:39;13.57;;;5.72;;
37847;SDS011;23688;33.130;-117.188;2023-08-30T06:01:05;18.15;;;6.22;;
37847;SDS011;23688;33.130;-117.188;2023-08-30T06:03:32;10.82;;;5.32;;
37847;SDS011;23688;33.130;-117.188;2023-08-30T06:05:59;11.60;;;5.65;;
37847;SDS011;23688;33.130;-117.188;2023-08-30T06:08:26;13.98;;;5.70;;
37847;SDS011;23688;33.130;-117.188;2023-08-30T06:10:53;10.38;;;5.35;;
37847;SDS011;23688;33.130;-117.188;2023-08-30T06:13:19;10.38;;;5.40;;
37847;SDS011;23688;33.130;-117.188;2023-08-30T06:15:49;10.63;;;4.72;;
37847;SDS011;23688;33.130;-117.188;2023-08-30T06:18:16;11.70;;;4.45;;
37847;SDS011;23688;33.130;-117.188;2023-08-30T06:20:42;11.25;;;4.38;;
37847;SDS011;23688;33.130;-117.188;2023-08-30T06:23:08;7.75;;;4.20;;
37847;SDS011;23688;33.130;-117.188;2023-08-30T06:25:37;9.80;;;4.72;;
37847;SDS011;23688;33.130;-117.188;2023-08-30T06:28:04;12.88;;;4.82;;
37847;SDS011;23688;33.130;-117.188;2023-08-30T06:30:30;10.02;;;4.15;;
37847;SDS011;23688;33.130;-117.188;2023-08-30T06:32:57;9.25;;;4.88;;
37847;SDS011;23688;33.130;-117.188;2023-08-30T06:35:23;9.18;;;5.22;;
37847;SDS011;23688;33.130;-117.188;2023-08-30T06:37:50;13.98;;;4.40;;
37847;SDS011;23688;33.130;-117.188;2023-08-30T06:40:17;11.23;;;5.00;;
37847;SDS011;23688;33.130;-117.188;2023-08-30T06:42:44;9.18;;;4.07;;
37847;SDS011;23688;33.130;-117.188;2023-08-30T06:45:10;8.45;;;4.68;;
37847;SDS011;23688;33.130;-117.188;2023-08-30T06:47:37;11.68;;;4.80;;
37847;SDS011;23688;33.130;-117.188;2023-08-30T06:50:03;11.98;;;4.55;;
37847;SDS011;23688;33.130;-117.188;2023-08-30T06:52:30;10.77;;;4.78;;
37847;SDS011;23688;33.130;-117.188;2023-08-30T06:54:56;11.05;;;4.65;;
37847;SDS011;23688;33.130;-117.188;2023-08-30T06:57:22;7.93;;;4.30;;
37847;SDS011;23688;33.130;-117.188;2023-08-30T06:59:49;9.55;;;4.50;;
37847;SDS011;23688;33.130;-117.188;2023-08-30T07:02:15;6.95;;;4.63;;
37847;SDS011;23688;33.130;-117.188;2023-08-30T07:04:41;9.77;;;4.75;;
37847;SDS011;23688;33.130;-117.188;2023-08-30T07:07:07;10.48;;;4.60;;
37847;SDS011;23688;33.130;-117.188;2023-08-30T07:09:34;7.93;;;4.47;;
37847;SDS011;23688;33.130;-117.188;2023-08-30T07:12:00;10.60;;;4.75;;
37847;SDS011;23688;33.130;-117.188;2023-08-30T07:14:27;7.13;;;3.85;;
37847;SDS011;23688;33.130;-117.188;2023-08-30T07:16:53;9.35;;;3.92;;
37847;SDS011;23688;33.130;-117.188;2023-08-30T07:19:19;8.82;;;4.35;;
37847;SDS011;23688;33.130;-117.188;2023-08-30T07:21:45;9.63;;;4.13;;
37847;SDS011;23688;33.130;-117.188;2023-08-30T07:24:11;10.38;;;4.88;;
37847;SDS011;23688;33.130;-117.188;2023-08-30T07:26:38;9.68;;;4.90;;
37847;SDS011;23688;33.130;-117.188;2023-08-30T07:29:04;8.93;;;4.53;;
37847;SDS011;23688;33.130;-117.188;2023-08-30T07:31:31;14.07;;;4.90;;
37847;SDS011;23688;33.130;-117.188;2023-08-30T07:43:35;9.90;;;5.05;;
37847;SDS011;23688;33.130;-117.188;2023-08-30T07:46:01;9.63;;;4.97;;
37847;SDS011;23688;33.130;-117.188;2023-08-30T08:39:48;12.02;;;6.35;;
37847;SDS011;23688;33.130;-117.188;2023-08-30T08:42:17;14.57;;;5.53;;
37847;SDS011;23688;33.130;-117.188;2023-08-30T08:44:50;16.08;;;6.00;;
37847;SDS011;23688;33.130;-117.188;2023-08-30T08:47:20;13.23;;;6.57;;
37847;SDS011;23688;33.130;-117.188;2023-08-30T08:49:46;15.05;;;6.70;;
37847;SDS011;23688;33.130;-117.188;2023-08-30T08:52:13;18.77;;;7.30;;
37847;SDS011;23688;33.130;-117.188;2023-08-30T08:54:41;19.17;;;6.72;;
37847;SDS011;23688;33.130;-117.188;2023-08-30T08:57:08;11.75;;;6.75;;
37847;SDS011;23688;33.130;-117.188;2023-08-30T08:59:35;13.57;;;6.60;;
37847;SDS011;23688;33.130;-117.188;2023-08-30T09:02:02;17.08;;;6.05;;
37847;SDS011;23688;33.130;-117.188;2023-08-30T09:04:30;18.73;;;7.65;;
37847;SDS011;23688;33.130;-117.188;2023-08-30T09:06:58;16.20;;;6.57;;
37847;SDS011;23688;33.130;-117.188;2023-08-30T09:09:25;14.88;;;6.35;;
37847;SDS011;23688;33.130;-117.188;2023-08-30T09:11:52;8.52;;;5.50;;
37847;SDS011;23688;33.130;-117.188;2023-08-30T09:14:18;11.38;;;5.00;;
37847;SDS011;23688;33.130;-117.188;2023-08-30T09:16:57;13.13;;;5.35;;
37847;SDS011;23688;33.130;-117.188;2023-08-30T09:19:25;11.18;;;6.15;;
37847;SDS011;23688;33.130;-117.188;2023-08-30T09:21:52;10.30;;;5.90;;
37847;SDS011;23688;33.130;-117.188;2023-08-30T09:24:19;10.85;;;5.80;;
37847;SDS011;23688;33.130;-117.188;2023-08-30T09:26:53;11.82;;;5.97;;
37847;SDS011;23688;33.130;-117.188;2023-08-30T09:29:20;11.65;;;5.70;;
37847;SDS011;23688;33.130;-117.188;2023-08-30T09:31:53;11.80;;;5.32;;
37847;SDS011;23688;33.130;-117.188;2023-08-30T09:34:24;8.70;;;5.22;;
37847;SDS011;23688;33.130;-117.188;2023-08-30T09:36:52;14.32;;;5.47;;
37847;SDS011;23688;33.130;-117.188;2023-08-30T09:39:26;12.50;;;5.15;;
37847;SDS011;23688;33.130;-117.188;2023-08-30T09:41:53;13.70;;;5.40;;
37847;SDS011;23688;33.130;-117.188;2023-08-30T09:44:20;10.05;;;5.45;;
37847;SDS011;23688;33.130;-117.188;2023-08-30T09:47:03;13.68;;;5.53;;
37847;SDS011;23688;33.130;-117.188;2023-08-30T09:49:30;8.85;;;5.05;;
37847;SDS011;23688;33.130;-117.188;2023-08-30T09:52:09;10.15;;;5.90;;
37847;SDS011;23688;33.130;-117.188;2023-08-30T09:54:36;16.20;;;6.57;;
37847;SDS011;23688;33.130;-117.188;2023-08-30T09:57:07;11.60;;;5.03;;
37847;SDS011;23688;33.130;-117.188;2023-08-30T09:59:33;14.40;;;6.25;;
37847;SDS011;23688;33.130;-117.188;2023-08-30T10:02:02;14.13;;;6.07;;
37847;SDS011;23688;33.130;-117.188;2023-08-30T10:04:29;13.27;;;5.82;;
37847;SDS011;23688;33.130;-117.188;2023-08-30T10:06:58;11.23;;;5.20;;
37847;SDS011;23688;33.130;-117.188;2023-08-30T10:09:25;10.68;;;5.40;;
37847;SDS011;23688;33.130;-117.188;2023-08-30T10:11:51;11.65;;;5.85;;
37847;SDS011;23688;33.130;-117.188;2023-08-30T10:14:17;17.10;;;6.47;;
37847;SDS011;23688;33.130;-117.188;2023-08-30T10:16:44;15.95;;;6.45;;
37847;SDS011;23688;33.130;-117.188;2023-08-30T10:19:24;15.50;;;6.88;;
37847;SDS011;23688;33.130;-117.188;2023-08-30T10:22:05;12.40;;;5.85;;
37847;SDS011;23688;33.130;-117.188;2023-08-30T10:27:39;14.10;;;6.22;;
37847;SDS011;23688;33.130;-117.188;2023-08-30T10:30:08;10.10;;;5.75;;
37847;SDS011;23688;33.130;-117.188;2023-08-30T10:32:43;13.65;;;5.78;;
37847;SDS011;23688;33.130;-117.188;2023-08-30T10:35:11;20.35;;;5.97;;
37847;SDS011;23688;33.130;-117.188;2023-08-30T10:37:39;11.90;;;5.63;;
37847;SDS011;23688;33.130;-117.188;2023-08-30T10:40:06;11.80;;;5.68;;
37847;SDS011;23688;33.130;-117.188;2023-08-30T10:42:34;10.77;;;5.40;;
37847;SDS011;23688;33.130;-117.188;2023-08-30T10:45:06;10.38;;;5.22;;
37847;SDS011;23688;33.130;-117.188;2023-08-30T10:47:37;12.63;;;5.32;;
37847;SDS011;23688;33.130;-117.188;2023-08-30T10:50:05;9.95;;;4.68;;
37847;SDS011;23688;33.130;-117.188;2023-08-30T10:52:35;10.57;;;5.32;;
37847;SDS011;23688;33.130;-117.188;2023-08-30T10:55:13;13.02;;;5.47;;
37847;SDS011;23688;33.130;-117.188;2023-08-30T10:57:41;10.02;;;5.15;;
37847;SDS011;23688;33.130;-117.188;2023-08-30T11:00:18;10.73;;;5.50;;
37847;SDS011;23688;33.130;-117.188;2023-08-30T11:02:47;8.25;;;5.07;;
37847;SDS011;23688;33.130;-117.188;2023-08-30T11:07:42;11.57;;;5.35;;
37847;SDS011;23688;33.130;-117.188;2023-08-30T11:10:09;11.60;;;5.57;;
37847;SDS011;23688;33.130;-117.188;2023-08-30T11:12:36;8.10;;;4.88;;
37847;SDS011;23688;33.130;-117.188;2023-08-30T11:15:02;12.77;;;6.28;;
37847;SDS011;23688;33.130;-117.188;2023-08-30T11:17:29;11.02;;;5.28;;
37847;SDS011;23688;33.130;-117.188;2023-08-30T11:20:05;13.27;;;5.10;;
37847;SDS011;23688;33.130;-117.188;2023-08-30T11:22:51;15.27;;;6.05;;
37847;SDS011;23688;33.130;-117.188;2023-08-30T11:25:21;14.20;;;5.55;;
37847;SDS011;23688;33.130;-117.188;2023-08-30T11:27:49;15.88;;;5.75;;
37847;SDS011;23688;33.130;-117.188;2023-08-30T11:30:15;11.60;;;6.35;;
37847;SDS011;23688;33.130;-117.188;2023-08-30T11:32:42;11.85;;;6.05;;
37847;SDS011;23688;33.130;-117.188;2023-08-30T11:35:08;14.60;;;5.95;;
37847;SDS011;23688;33.130;-117.188;2023-08-30T11:37:35;16.45;;;5.82;;
37847;SDS011;23688;33.130;-117.188;2023-08-30T11:40:02;11.38;;;5.35;;
37847;SDS011;23688;33.130;-117.188;2023-08-30T11:42:30;10.02;;;4.68;;
37847;SDS011;23688;33.130;-117.188;2023-08-30T11:45:00;9.93;;;5.45;;
37847;SDS011;23688;33.130;-117.188;2023-08-30T11:47:27;11.35;;;5.05;;
37847;SDS011;23688;33.130;-117.188;2023-08-30T11:49:54;9.38;;;4.80;;
37847;SDS011;23688;33.130;-117.188;2023-08-30T11:52:22;7.80;;;5.13;;
37847;SDS011;23688;33.130;-117.188;2023-08-30T11:54:51;12.23;;;5.55;;
37847;SDS011;23688;33.130;-117.188;2023-08-30T11:57:19;9.20;;;4.85;;
37847;SDS011;23688;33.130;-117.188;2023-08-30T11:59:46;11.53;;;5.70;;
37847;SDS011;23688;33.130;-117.188;2023-08-30T12:02:13;9.55;;;4.70;;
37847;SDS011;23688;33.130;-117.188;2023-08-30T12:04:41;13.30;;;5.18;;
37847;SDS011;23688;33.130;-117.188;2023-08-30T12:07:08;14.00;;;5.22;;
37847;SDS011;23688;33.130;-117.188;2023-08-30T12:09:36;10.82;;;5.55;;
37847;SDS011;23688;33.130;-117.188;2023-08-30T12:12:06;10.73;;;5.30;;
37847;SDS011;23688;33.130;-117.188;2023-08-30T12:14:35;9.93;;;5.00;;
37847;SDS011;23688;33.130;-117.188;2023-08-30T12:17:02;14.63;;;5.82;;
37847;SDS011;23688;33.130;-117.188;2023-08-30T12:19:29;13.40;;;6.15;;
37847;SDS011;23688;33.130;-117.188;2023-08-30T12:22:02;13.88;;;6.80;;
37847;SDS011;23688;33.130;-117.188;2023-08-30T12:24:42;15.20;;;5.78;;
37847;SDS011;23688;33.130;-117.188;2023-08-30T12:27:11;8.68;;;4.97;;
37847;SDS011;23688;33.130;-117.188;2023-08-30T12:29:38;15.35;;;6.05;;
37847;SDS011;23688;33.130;-117.188;2023-08-30T12:32:05;14.30;;;5.80;;
37847;SDS011;23688;33.130;-117.188;2023-08-30T12:34:32;15.70;;;7.28;;
37847;SDS011;23688;33.130;-117.188;2023-08-30T12:36:59;13.88;;;6.50;;
37847;SDS011;23688;33.130;-117.188;2023-08-30T12:39:27;14.10;;;6.27;;
37847;SDS011;23688;33.130;-117.188;2023-08-30T12:41:53;16.27;;;5.97;;
37847;SDS011;23688;33.130;-117.188;2023-08-30T12:44:19;14.07;;;6.13;;
37847;SDS011;23688;33.130;-117.188;2023-08-30T12:46:46;13.95;;;5.80;;
37847;SDS011;23688;33.130;-117.188;2023-08-30T12:49:12;13.02;;;6.60;;
37847;SDS011;23688;33.130;-117.188;2023-08-30T12:51:38;11.45;;;5.97;;
37847;SDS011;23688;33.130;-117.188;2023-08-30T12:54:05;14.35;;;5.72;;
37847;SDS011;23688;33.130;-117.188;2023-08-30T12:56:31;10.93;;;5.95;;
37847;SDS011;23688;33.130;-117.188;2023-08-30T12:58:57;18.95;;;6.57;;
37847;SDS011;23688;33.130;-117.188;2023-08-30T13:01:23;16.77;;;5.90;;
37847;SDS011;23688;33.130;-117.188;2023-08-30T13:03:50;8.48;;;5.65;;
37847;SDS011;23688;33.130;-117.188;2023-08-30T13:06:16;19.23;;;5.90;;
37847;SDS011;23688;33.130;-117.188;2023-08-30T13:08:42;18.13;;;6.85;;
37847;SDS011;23688;33.130;-117.188;2023-08-30T13:11:08;16.65;;;6.68;;
37847;SDS011;23688;33.130;-117.188;2023-08-30T13:13:35;15.43;;;5.88;;
37847;SDS011;23688;33.130;-117.188;2023-08-30T13:16:01;14.27;;;5.57;;
37847;SDS011;23688;33.130;-117.188;2023-08-30T13:18:28;13.35;;;5.18;;
37847;SDS011;23688;33.130;-117.188;2023-08-30T13:20:54;9.75;;;4.72;;
37847;SDS011;23688;33.130;-117.188;2023-08-30T13:23:21;11.05;;;5.38;;
37847;SDS011;23688;33.130;-117.188;2023-08-30T13:25:47;10.00;;;6.22;;
37847;SDS011;23688;33.130;-117.188;2023-08-30T13:28:16;12.98;;;4.80;;
37847;SDS011;23688;33.130;-117.188;2023-08-30T13:30:46;17.60;;;5.63;;
37847;SDS011;23688;33.130;-117.188;2023-08-30T13:33:14;9.07;;;4.78;;
37847;SDS011;23688;33.130;-117.188;2023-08-30T13:35:48;12.68;;;5.25;;
37847;SDS011;23688;33.130;-117.188;2023-08-30T13:38:16;10.40;;;5.13;;
37847;SDS011;23688;33.130;-117.188;2023-08-30T13:40:43;6.13;;;4.18;;
37847;SDS011;23688;33.130;-117.188;2023-08-30T13:43:10;10.73;;;5.18;;
37847;SDS011;23688;33.130;-117.188;2023-08-30T13:45:36;15.63;;;5.40;;
37847;SDS011;23688;33.130;-117.188;2023-08-30T13:48:03;12.80;;;5.18;;
37847;SDS011;23688;33.130;-117.188;2023-08-30T13:50:29;12.35;;;5.47;;
37847;SDS011;23688;33.130;-117.188;2023-08-30T13:52:57;12.02;;;5.85;;
37847;SDS011;23688;33.130;-117.188;2023-08-30T13:55:24;9.90;;;5.07;;
37847;SDS011;23688;33.130;-117.188;2023-08-30T13:57:50;14.80;;;5.00;;
37847;SDS011;23688;33.130;-117.188;2023-08-30T14:00:16;15.43;;;5.38;;
37847;SDS011;23688;33.130;-117.188;2023-08-30T14:02:43;12.32;;;5.20;;
37847;SDS011;23688;33.130;-117.188;2023-08-30T14:05:09;13.77;;;5.57;;
37847;SDS011;23688;33.130;-117.188;2023-08-30T14:07:35;13.00;;;5.75;;
37847;SDS011;23688;33.130;-117.188;2023-08-30T14:10:02;16.17;;;5.47;;
37847;SDS011;23688;33.130;-117.188;2023-08-30T14:12:28;14.52;;;6.05;;
37847;SDS011;23688;33.130;-117.188;2023-08-30T14:14:54;20.25;;;5.90;;
37847;SDS011;23688;33.130;-117.188;2023-08-30T14:17:21;15.77;;;5.63;;
37847;SDS011;23688;33.130;-117.188;2023-08-30T14:19:47;9.25;;;5.15;;
37847;SDS011;23688;33.130;-117.188;2023-08-30T14:22:13;11.88;;;5.55;;
37847;SDS011;23688;33.130;-117.188;2023-08-30T14:24:40;11.70;;;5.00;;
37847;SDS011;23688;33.130;-117.188;2023-08-30T14:27:06;12.23;;;6.80;;
37847;SDS011;23688;33.130;-117.188;2023-08-30T14:29:35;12.25;;;5.93;;
37847;SDS011;23688;33.130;-117.188;2023-08-30T14:32:01;12.73;;;6.68;;
37847;SDS011;23688;33.130;-117.188;2023-08-30T14:34:28;19.08;;;7.00;;
37847;SDS011;23688;33.130;-117.188;2023-08-30T14:36:55;15.90;;;6.57;;
37847;SDS011;23688;33.130;-117.188;2023-08-30T14:39:22;21.95;;;7.13;;
37847;SDS011;23688;33.130;-117.188;2023-08-30T14:41:48;22.00;;;7.90;;
37847;SDS011;23688;33.130;-117.188;2023-08-30T14:44:14;19.10;;;7.38;;
37847;SDS011;23688;33.130;-117.188;2023-08-30T14:46:40;21.02;;;7.30;;
37847;SDS011;23688;33.130;-117.188;2023-08-30T14:49:07;18.27;;;7.70;;
37847;SDS011;23688;33.130;-117.188;2023-08-30T14:51:33;16.55;;;7.75;;
37847;SDS011;23688;33.130;-117.188;2023-08-30T14:53:59;23.10;;;7.70;;
37847;SDS011;23688;33.130;-117.188;2023-08-30T14:56:26;22.33;;;8.52;;
37847;SDS011;23688;33.130;-117.188;2023-08-30T14:58:52;21.02;;;8.13;;
37847;SDS011;23688;33.130;-117.188;2023-08-30T15:01:18;24.90;;;7.47;;
37847;SDS011;23688;33.130;-117.188;2023-08-30T15:03:45;20.73;;;8.98;;
37847;SDS011;23688;33.130;-117.188;2023-08-30T15:06:11;23.08;;;8.55;;
37847;SDS011;23688;33.130;-117.188;2023-08-30T15:08:37;17.92;;;8.20;;
37847;SDS011;23688;33.130;-117.188;2023-08-30T15:11:05;23.05;;;9.07;;